sensor_id;sensor_type;location;lat;lon;timestamp;pressure;altitude;pressure_sealevel;temperature;humidity
50790;BME280;37287;47.554;7.844;2023-03-13T00:01:30;97612.03;;;5.50;100.00
50790;BME280;37287;47.554;7.844;2023-03-13T00:03:57;97612.69;;;5.47;100.00
50790;BME280;37287;47.554;7.844;2023-03-13T00:06:35;97609.50;;;5.41;100.00
50790;BME280;37287;47.554;7.844;2023-03-13T00:09:05;97610.91;;;5.35;100.00
50790;BME280;37287;47.554;7.844;2023-03-13T00:11:34;97598.53;;;5.30;100.00
50790;BME280;37287;47.554;7.844;2023-03-13T00:14:03;97604.59;;;5.27;100.00
50790;BME280;37287;47.554;7.844;2023-03-13T00:16:32;97597.66;;;5.26;100.00
50790;BME280;37287;47.554;7.844;2023-03-13T00:19:01;97606.81;;;5.25;100.00
50790;BME280;37287;47.554;7.844;2023-03-13T00:21:28;97601.44;;;5.25;100.00
50790;BME280;37287;47.554;7.844;2023-03-13T00:23:58;97606.06;;;5.25;100.00
50790;BME280;37287;47.554;7.844;2023-03-13T00:26:26;97605.25;;;5.24;100.00
50790;BME280;37287;47.554;7.844;2023-03-13T00:28:53;97595.31;;;5.25;100.00
50790;BME280;37287;47.554;7.844;2023-03-13T00:33:49;97603.09;;;5.30;100.00
50790;BME280;37287;47.554;7.844;2023-03-13T00:36:21;97603.44;;;5.28;100.00
50790;BME280;37287;47.554;7.844;2023-03-13T00:38:56;97597.38;;;5.31;100.00
50790;BME280;37287;47.554;7.844;2023-03-13T00:41:27;97591.75;;;5.37;100.00
50790;BME280;37287;47.554;7.844;2023-03-13T00:43:56;97596.78;;;5.38;100.00
50790;BME280;37287;47.554;7.844;2023-03-13T00:46:28;97594.88;;;5.39;100.00
50790;BME280;37287;47.554;7.844;2023-03-13T00:48:55;97585.25;;;5.38;100.00
50790;BME280;37287;47.554;7.844;2023-03-13T00:51:25;97584.81;;;5.36;100.00
50790;BME280;37287;47.554;7.844;2023-03-13T00:53:53;97582.13;;;5.36;100.00
50790;BME280;37287;47.554;7.844;2023-03-13T00:56:20;97584.41;;;5.33;100.00
50790;BME280;37287;47.554;7.844;2023-03-13T00:58:51;97579.03;;;5.33;100.00
50790;BME280;37287;47.554;7.844;2023-03-13T01:01:28;97577.91;;;5.34;100.00
50790;BME280;37287;47.554;7.844;2023-03-13T01:04:04;97579.91;;;5.38;100.00
50790;BME280;37287;47.554;7.844;2023-03-13T01:06:33;97576.09;;;5.39;100.00
50790;BME280;37287;47.554;7.844;2023-03-13T01:09:03;97573.81;;;5.41;100.00
50790;BME280;37287;47.554;7.844;2023-03-13T01:11:31;97566.53;;;5.41;100.00
50790;BME280;37287;47.554;7.844;2023-03-13T01:14:01;97569.66;;;5.43;100.00
50790;BME280;37287;47.554;7.844;2023-03-13T01:16:35;97564.72;;;5.45;100.00
50790;BME280;37287;47.554;7.844;2023-03-13T01:19:05;97561.69;;;5.47;100.00
50790;BME280;37287;47.554;7.844;2023-03-13T01:21:35;97555.19;;;5.48;100.00
50790;BME280;37287;47.554;7.844;2023-03-13T01:24:02;97556.75;;;5.49;100.00
50790;BME280;37287;47.554;7.844;2023-03-13T01:26:29;97560.91;;;5.46;100.00
50790;BME280;37287;47.554;7.844;2023-03-13T01:28:56;97548.25;;;5.47;100.00
50790;BME280;37287;47.554;7.844;2023-03-13T01:31:28;97545.16;;;5.45;100.00
50790;BME280;37287;47.554;7.844;2023-03-13T01:33:57;97538.66;;;5.46;100.00
50790;BME280;37287;47.554;7.844;2023-03-13T01:36:33;97529.47;;;5.47;100.00
50790;BME280;37287;47.554;7.844;2023-03-13T01:39:03;97536.84;;;5.50;100.00
50790;BME280;37287;47.554;7.844;2023-03-13T01:41:30;97537.66;;;5.54;100.00
50790;BME280;37287;47.554;7.844;2023-03-13T01:43:57;97523.97;;;5.59;100.00
50790;BME280;37287;47.554;7.844;2023-03-13T01:46:27;97524.13;;;5.66;100.00
50790;BME280;37287;47.554;7.844;2023-03-13T01:51:56;97521.19;;;5.72;100.00
50790;BME280;37287;47.554;7.844;2023-03-13T01:54:28;97518.84;;;5.70;100.00
50790;BME280;37287;47.554;7.844;2023-03-13T01:57:06;97514.19;;;5.67;100.00
50790;BME280;37287;47.554;7.844;2023-03-13T01:59:39;97517.13;;;5.62;100.00
50790;BME280;37287;47.554;7.844;2023-03-13T02:02:09;97520.88;;;5.57;100.00
50790;BME280;37287;47.554;7.844;2023-03-13T02:04:40;97509.63;;;5.51;100.00
50790;BME280;37287;47.554;7.844;2023-03-13T02:07:14;97518.72;;;5.47;100.00
50790;BME280;37287;47.554;7.844;2023-03-13T02:09:46;97520.53;;;5.43;100.00
50790;BME280;37287;47.554;7.844;2023-03-13T02:12:28;97514.34;;;5.39;100.00
50790;BME280;37287;47.554;7.844;2023-03-13T02:14:57;97510.81;;;5.34;100.00
50790;BME280;37287;47.554;7.844;2023-03-13T02:17:28;97504.22;;;5.32;100.00
50790;BME280;37287;47.554;7.844;2023-03-13T02:19:55;97491.16;;;5.30;100.00
50790;BME280;37287;47.554;7.844;2023-03-13T02:22:42;97476.44;;;5.24;100.00
50790;BME280;37287;47.554;7.844;2023-03-13T02:27:44;97477.56;;;5.23;100.00
50790;BME280;37287;47.554;7.844;2023-03-13T02:30:12;97473.31;;;5.22;100.00
50790;BME280;37287;47.554;7.844;2023-03-13T02:32:40;97476.00;;;5.22;100.00
50790;BME280;37287;47.554;7.844;2023-03-13T02:35:09;97476.72;;;5.19;100.00
50790;BME280;37287;47.554;7.844;2023-03-13T02:37:38;97467.09;;;5.18;100.00
50790;BME280;37287;47.554;7.844;2023-03-13T02:40:11;97461.72;;;5.18;100.00
50790;BME280;37287;47.554;7.844;2023-03-13T02:42:41;97451.00;;;5.18;100.00
50790;BME280;37287;47.554;7.844;2023-03-13T02:45:09;97434.75;;;5.11;100.00
50790;BME280;37287;47.554;7.844;2023-03-13T02:47:38;97436.31;;;5.12;100.00
50790;BME280;37287;47.554;7.844;2023-03-13T02:50:04;97437.06;;;5.12;100.00
50790;BME280;37287;47.554;7.844;2023-03-13T02:52:35;97447.88;;;5.16;100.00
50790;BME280;37287;47.554;7.844;2023-03-13T02:55:09;97447.09;;;5.15;100.00
50790;BME280;37287;47.554;7.844;2023-03-13T02:57:37;97436.38;;;5.15;100.00
50790;BME280;37287;47.554;7.844;2023-03-13T03:00:06;97436.72;;;5.14;100.00
50790;BME280;37287;47.554;7.844;2023-03-13T03:02:38;97444.78;;;5.14;100.00
50790;BME280;37287;47.554;7.844;2023-03-13T03:05:05;97441.72;;;5.15;100.00
50790;BME280;37287;47.554;7.844;2023-03-13T03:07:32;97448.31;;;5.18;100.00
50790;BME280;37287;47.554;7.844;2023-03-13T03:10:00;97448.72;;;5.20;100.00
50790;BME280;37287;47.554;7.844;2023-03-13T03:12:27;97447.25;;;5.23;100.00
50790;BME280;37287;47.554;7.844;2023-03-13T03:14:53;97444.22;;;5.24;100.00
50790;BME280;37287;47.554;7.844;2023-03-13T03:17:23;97458.84;;;5.27;100.00
50790;BME280;37287;47.554;7.844;2023-03-13T03:19:52;97458.16;;;5.30;100.00
50790;BME280;37287;47.554;7.844;2023-03-13T03:22:18;97451.66;;;5.31;100.00
50790;BME280;37287;47.554;7.844;2023-03-13T03:24:46;97462.03;;;5.32;100.00
50790;BME280;37287;47.554;7.844;2023-03-13T03:27:13;97469.38;;;5.36;100.00
50790;BME280;37287;47.554;7.844;2023-03-13T03:29:40;97461.78;;;5.38;100.00
50790;BME280;37287;47.554;7.844;2023-03-13T03:32:13;97452.94;;;5.37;100.00
50790;BME280;37287;47.554;7.844;2023-03-13T03:34:40;97459.50;;;5.40;100.00
50790;BME280;37287;47.554;7.844;2023-03-13T03:37:06;97452.59;;;5.39;100.00
50790;BME280;37287;47.554;7.844;2023-03-13T03:39:33;97457.97;;;5.39;100.00
50790;BME280;37287;47.554;7.844;2023-03-13T03:41:59;97454.59;;;5.42;100.00
50790;BME280;37287;47.554;7.844;2023-03-13T03:44:26;97449.22;;;5.42;100.00
50790;BME280;37287;47.554;7.844;2023-03-13T03:46:53;97443.47;;;5.43;100.00
50790;BME280;37287;47.554;7.844;2023-03-13T03:49:19;97436.19;;;5.44;100.00
50790;BME280;37287;47.554;7.844;2023-03-13T03:51:46;97444.69;;;5.46;100.00
50790;BME280;37287;47.554;7.844;2023-03-13T03:54:15;97446.66;;;5.49;100.00
50790;BME280;37287;47.554;7.844;2023-03-13T03:56:42;97440.19;;;5.50;100.00
50790;BME280;37287;47.554;7.844;2023-03-13T03:59:08;97436.34;;;5.51;100.00
50790;BME280;37287;47.554;7.844;2023-03-13T04:01:37;97437.91;;;5.52;100.00
50790;BME280;37287;47.554;7.844;2023-03-13T04:04:03;97435.63;;;5.54;100.00
50790;BME280;37287;47.554;7.844;2023-03-13T04:06:30;97438.75;;;5.56;100.00
50790;BME280;37287;47.554;7.844;2023-03-13T04:08:58;97441.84;;;5.58;100.00
50790;BME280;37287;47.554;7.844;2023-03-13T04:11:25;97436.94;;;5.60;100.00
50790;BME280;37287;47.554;7.844;2023-03-13T04:13:52;97451.91;;;5.61;100.00
50790;BME280;37287;47.554;7.844;2023-03-13T04:16:20;97443.56;;;5.66;100.00
50790;BME280;37287;47.554;7.844;2023-03-13T04:18:47;97441.31;;;5.68;100.00
50790;BME280;37287;47.554;7.844;2023-03-13T04:21:13;97434.03;;;5.69;100.00
50790;BME280;37287;47.554;7.844;2023-03-13T04:23:41;97433.31;;;5.72;100.00
50790;BME280;37287;47.554;7.844;2023-03-13T04:26:08;97426.03;;;5.73;100.00
50790;BME280;37287;47.554;7.844;2023-03-13T04:28:35;97420.31;;;5.74;100.00
50790;BME280;37287;47.554;7.844;2023-03-13T04:31:01;97418.41;;;5.75;100.00
50790;BME280;37287;47.554;7.844;2023-03-13T04:33:28;97415.34;;;5.76;100.00
50790;BME280;37287;47.554;7.844;2023-03-13T04:35:56;97407.75;;;5.78;100.00
50790;BME280;37287;47.554;7.844;2023-03-13T04:38:24;97423.50;;;5.80;100.00
50790;BME280;37287;47.554;7.844;2023-03-13T04:40:51;97412.75;;;5.80;100.00
50790;BME280;37287;47.554;7.844;2023-03-13T04:43:17;97422.34;;;5.81;100.00
50790;BME280;37287;47.554;7.844;2023-03-13T04:45:44;97419.66;;;5.81;100.00
50790;BME280;37287;47.554;7.844;2023-03-13T04:48:14;97413.16;;;5.82;100.00
50790;BME280;37287;47.554;7.844;2023-03-13T04:50:41;97411.69;;;5.84;100.00
50790;BME280;37287;47.554;7.844;2023-03-13T04:53:07;97409.00;;;5.84;100.00
50790;BME280;37287;47.554;7.844;2023-03-13T04:55:34;97409.41;;;5.86;100.00
50790;BME280;37287;47.554;7.844;2023-03-13T04:58:00;97421.34;;;5.89;100.00
50790;BME280;37287;47.554;7.844;2023-03-13T05:00:29;97425.59;;;5.90;100.00
50790;BME280;37287;47.554;7.844;2023-03-13T05:02:55;97426.72;;;5.89;100.00
50790;BME280;37287;47.554;7.844;2023-03-13T05:05:22;97415.97;;;5.89;100.00
50790;BME280;37287;47.554;7.844;2023-03-13T05:07:48;97412.56;;;5.92;100.00
50790;BME280;37287;47.554;7.844;2023-03-13T05:10:15;97408.00;;;5.93;100.00
50790;BME280;37287;47.554;7.844;2023-03-13T05:12:42;97410.31;;;5.94;100.00
50790;BME280;37287;47.554;7.844;2023-03-13T05:15:08;97407.28;;;5.96;100.00
50790;BME280;37287;47.554;7.844;2023-03-13T05:17:35;97403.81;;;5.95;100.00
50790;BME280;37287;47.554;7.844;2023-03-13T05:20:02;97400.78;;;5.97;100.00
50790;BME280;37287;47.554;7.844;2023-03-13T05:22:30;97394.28;;;5.98;100.00
50790;BME280;37287;47.554;7.844;2023-03-13T05:24:58;97401.22;;;5.99;100.00
50790;BME280;37287;47.554;7.844;2023-03-13T05:27:25;97403.53;;;6.00;100.00
50790;BME280;37287;47.554;7.844;2023-03-13T05:29:52;97393.22;;;6.02;100.00
50790;BME280;37287;47.554;7.844;2023-03-13T05:32:18;97389.06;;;6.05;100.00
50790;BME280;37287;47.554;7.844;2023-03-13T05:34:45;97398.28;;;6.08;100.00
50790;BME280;37287;47.554;7.844;2023-03-13T05:37:15;97387.97;;;6.10;100.00
50790;BME280;37287;47.554;7.844;2023-03-13T05:39:44;97388.38;;;6.12;100.00
50790;BME280;37287;47.554;7.844;2023-03-13T05:42:11;97382.66;;;6.13;100.00
50790;BME280;37287;47.554;7.844;2023-03-13T05:44:37;97380.03;;;6.17;100.00
50790;BME280;37287;47.554;7.844;2023-03-13T05:47:04;97375.88;;;6.19;100.00
50790;BME280;37287;47.554;7.844;2023-03-13T05:49:31;97374.00;;;6.24;100.00
50790;BME280;37287;47.554;7.844;2023-03-13T05:52:02;97385.59;;;6.28;100.00
50790;BME280;37287;47.554;7.844;2023-03-13T05:54:28;97381.03;;;6.32;100.00
50790;BME280;37287;47.554;7.844;2023-03-13T05:56:55;97379.16;;;6.32;100.00
50790;BME280;37287;47.554;7.844;2023-03-13T05:59:25;97382.59;;;6.33;100.00
50790;BME280;37287;47.554;7.844;2023-03-13T06:01:52;97382.25;;;6.34;100.00
50790;BME280;37287;47.554;7.844;2023-03-13T06:04:19;97376.88;;;6.34;100.00
50790;BME280;37287;47.554;7.844;2023-03-13T06:06:47;97379.56;;;6.34;100.00
50790;BME280;37287;47.554;7.844;2023-03-13T06:09:14;97384.19;;;6.37;100.00
50790;BME280;37287;47.554;7.844;2023-03-13T06:11:43;97382.66;;;6.36;100.00
50790;BME280;37287;47.554;7.844;2023-03-13T06:14:14;97381.50;;;6.37;100.00
50790;BME280;37287;47.554;7.844;2023-03-13T06:16:40;97384.28;;;6.41;100.00
50790;BME280;37287;47.554;7.844;2023-03-13T06:19:10;97385.09;;;6.45;100.00
50790;BME280;37287;47.554;7.844;2023-03-13T06:21:46;97381.34;;;6.50;100.00
50790;BME280;37287;47.554;7.844;2023-03-13T06:24:12;97375.66;;;6.55;100.00
50790;BME280;37287;47.554;7.844;2023-03-13T06:26:39;97378.03;;;6.60;100.00
50790;BME280;37287;47.554;7.844;2023-03-13T06:29:08;97367.03;;;6.69;100.00
50790;BME280;37287;47.554;7.844;2023-03-13T06:31:35;97368.25;;;6.75;100.00
50790;BME280;37287;47.554;7.844;2023-03-13T06:34:01;97357.97;;;6.81;100.00
50790;BME280;37287;47.554;7.844;2023-03-13T06:36:32;97350.38;;;6.86;100.00
50790;BME280;37287;47.554;7.844;2023-03-13T06:38:59;97341.25;;;6.95;100.00
50790;BME280;37287;47.554;7.844;2023-03-13T06:41:25;97347.13;;;7.04;100.00
50790;BME280;37287;47.554;7.844;2023-03-13T06:43:55;97348.78;;;7.12;100.00
50790;BME280;37287;47.554;7.844;2023-03-13T06:46:22;97352.75;;;7.22;100.00
50790;BME280;37287;47.554;7.844;2023-03-13T06:48:50;97354.75;;;7.29;100.00
50790;BME280;37287;47.554;7.844;2023-03-13T06:51:20;97360.63;;;7.38;100.00
50790;BME280;37287;47.554;7.844;2023-03-13T06:53:47;97356.41;;;7.40;100.00
50790;BME280;37287;47.554;7.844;2023-03-13T06:56:14;97356.78;;;7.39;100.00
50790;BME280;37287;47.554;7.844;2023-03-13T06:58:41;97358.72;;;7.38;100.00
50790;BME280;37287;47.554;7.844;2023-03-13T07:01:09;97365.66;;;7.39;100.00
50790;BME280;37287;47.554;7.844;2023-03-13T07:03:37;97376.44;;;7.39;100.00
50790;BME280;37287;47.554;7.844;2023-03-13T07:06:09;97371.84;;;7.44;100.00
50790;BME280;37287;47.554;7.844;2023-03-13T07:08:38;97374.22;;;7.49;100.00
50790;BME280;37287;47.554;7.844;2023-03-13T07:11:10;97373.84;;;7.50;100.00
50790;BME280;37287;47.554;7.844;2023-03-13T07:13:38;97372.66;;;7.48;100.00
50790;BME280;37287;47.554;7.844;2023-03-13T07:16:10;97382.66;;;7.47;100.00
50790;BME280;37287;47.554;7.844;2023-03-13T07:18:38;97388.81;;;7.48;100.00
50790;BME280;37287;47.554;7.844;2023-03-13T07:21:09;97381.16;;;7.50;100.00
50790;BME280;37287;47.554;7.844;2023-03-13T07:23:36;97379.69;;;7.56;100.00
50790;BME280;37287;47.554;7.844;2023-03-13T07:26:12;97370.22;;;7.69;100.00
50790;BME280;37287;47.554;7.844;2023-03-13T07:28:43;97371.66;;;7.97;100.00
50790;BME280;37287;47.554;7.844;2023-03-13T07:31:15;97365.22;;;8.09;100.00
50790;BME280;37287;47.554;7.844;2023-03-13T07:33:43;97353.59;;;8.01;100.00
50790;BME280;37287;47.554;7.844;2023-03-13T07:36:15;97347.59;;;8.19;100.00
50790;BME280;37287;47.554;7.844;2023-03-13T07:38:42;97359.41;;;8.45;100.00
50790;BME280;37287;47.554;7.844;2023-03-13T07:41:11;97355.88;;;8.92;100.00
50790;BME280;37287;47.554;7.844;2023-03-13T07:43:42;97358.38;;;9.37;100.00
50790;BME280;37287;47.554;7.844;2023-03-13T07:46:11;97347.34;;;9.78;100.00
50790;BME280;37287;47.554;7.844;2023-03-13T07:48:41;97345.06;;;10.13;100.00
50790;BME280;37287;47.554;7.844;2023-03-13T07:51:18;97338.13;;;10.44;98.94
50790;BME280;37287;47.554;7.844;2023-03-13T07:53:55;97343.16;;;10.53;95.67
50790;BME280;37287;47.554;7.844;2023-03-13T07:56:28;97330.41;;;10.50;95.98
50790;BME280;37287;47.554;7.844;2023-03-13T07:58:55;97323.38;;;10.81;96.02
50790;BME280;37287;47.554;7.844;2023-03-13T08:01:25;97327.94;;;11.10;96.71
50790;BME280;37287;47.554;7.844;2023-03-13T08:03:55;97333.72;;;11.30;94.38
50790;BME280;37287;47.554;7.844;2023-03-13T08:06:25;97327.13;;;11.24;94.29
50790;BME280;37287;47.554;7.844;2023-03-13T08:08:56;97319.34;;;11.36;94.04
50790;BME280;37287;47.554;7.844;2023-03-13T08:11:24;97310.69;;;11.67;94.05
50790;BME280;37287;47.554;7.844;2023-03-13T08:13:52;97311.72;;;11.84;93.25
50790;BME280;37287;47.554;7.844;2023-03-13T08:16:25;97309.66;;;12.10;92.88
50790;BME280;37287;47.554;7.844;2023-03-13T08:18:56;97308.75;;;12.24;89.81
50790;BME280;37287;47.554;7.844;2023-03-13T08:21:26;97310.28;;;12.70;91.83
50790;BME280;37287;47.554;7.844;2023-03-13T08:23:54;97297.03;;;13.14;88.55
50790;BME280;37287;47.554;7.844;2023-03-13T08:26:24;97289.00;;;13.34;87.46
50790;BME280;37287;47.554;7.844;2023-03-13T08:28:55;97306.25;;;13.82;83.62
50790;BME280;37287;47.554;7.844;2023-03-13T08:31:26;97296.66;;;14.48;82.89
50790;BME280;37287;47.554;7.844;2023-03-13T08:33:53;97292.75;;;15.33;79.39
50790;BME280;37287;47.554;7.844;2023-03-13T08:36:31;97294.97;;;16.90;77.22
50790;BME280;37287;47.554;7.844;2023-03-13T08:39:00;97281.41;;;18.19;70.93
50790;BME280;37287;47.554;7.844;2023-03-13T08:41:35;97288.66;;;18.26;69.29
50790;BME280;37287;47.554;7.844;2023-03-13T08:44:05;97268.94;;;18.05;69.13
50790;BME280;37287;47.554;7.844;2023-03-13T08:46:34;97266.53;;;18.77;69.41
50790;BME280;37287;47.554;7.844;2023-03-13T08:49:25;97255.91;;;19.23;62.91
50790;BME280;37287;47.554;7.844;2023-03-13T08:51:52;97266.06;;;19.14;65.57
50790;BME280;37287;47.554;7.844;2023-03-13T08:54:18;97252.25;;;18.25;65.36
50790;BME280;37287;47.554;7.844;2023-03-13T08:56:45;97240.38;;;17.80;67.53
50790;BME280;37287;47.554;7.844;2023-03-13T08:59:15;97247.25;;;18.11;66.80
50790;BME280;37287;47.554;7.844;2023-03-13T09:01:43;97247.72;;;18.44;65.73
50790;BME280;37287;47.554;7.844;2023-03-13T09:04:10;97247.38;;;18.99;61.52
50790;BME280;37287;47.554;7.844;2023-03-13T09:06:37;97237.59;;;18.19;56.48
50790;BME280;37287;47.554;7.844;2023-03-13T09:09:05;97240.13;;;17.36;59.19
50790;BME280;37287;47.554;7.844;2023-03-13T09:11:32;97256.34;;;18.08;65.56
50790;BME280;37287;47.554;7.844;2023-03-13T09:14:01;97236.63;;;17.74;66.03
50790;BME280;37287;47.554;7.844;2023-03-13T09:16:30;97239.72;;;18.94;64.13
50790;BME280;37287;47.554;7.844;2023-03-13T09:18:57;97220.97;;;19.87;60.18
50790;BME280;37287;47.554;7.844;2023-03-13T09:21:30;97210.97;;;20.76;55.27
50790;BME280;37287;47.554;7.844;2023-03-13T09:23:58;97208.13;;;21.13;52.20
50790;BME280;37287;47.554;7.844;2023-03-13T09:26:26;97198.59;;;21.33;52.42
50790;BME280;37287;47.554;7.844;2023-03-13T09:28:54;97186.28;;;21.10;49.41
50790;BME280;37287;47.554;7.844;2023-03-13T09:31:25;97183.44;;;20.12;56.81
50790;BME280;37287;47.554;7.844;2023-03-13T09:33:53;97181.31;;;20.06;56.76
50790;BME280;37287;47.554;7.844;2023-03-13T09:36:24;97171.09;;;20.44;57.49
50790;BME280;37287;47.554;7.844;2023-03-13T09:38:53;97176.13;;;20.45;57.34
50790;BME280;37287;47.554;7.844;2023-03-13T09:41:28;97162.91;;;21.05;56.24
50790;BME280;37287;47.554;7.844;2023-03-13T09:44:20;97167.66;;;21.05;52.31
50790;BME280;37287;47.554;7.844;2023-03-13T09:47:00;97168.00;;;20.88;55.15
50790;BME280;37287;47.554;7.844;2023-03-13T09:49:38;97172.00;;;20.32;55.01
50790;BME280;37287;47.554;7.844;2023-03-13T09:57:29;97148.19;;;19.41;59.59
50790;BME280;37287;47.554;7.844;2023-03-13T10:02:39;97129.56;;;19.36;57.40
50790;BME280;37287;47.554;7.844;2023-03-13T10:05:25;97124.09;;;19.36;58.92
50790;BME280;37287;47.554;7.844;2023-03-13T10:08:12;97112.13;;;19.12;53.56
50790;BME280;37287;47.554;7.844;2023-03-13T10:10:58;97112.81;;;19.34;59.77
50790;BME280;37287;47.554;7.844;2023-03-13T10:13:46;97115.22;;;19.91;56.70
50790;BME280;37287;47.554;7.844;2023-03-13T10:16:31;97099.56;;;19.01;53.59
50790;BME280;37287;47.554;7.844;2023-03-13T10:19:07;97114.69;;;18.84;61.23
50790;BME280;37287;47.554;7.844;2023-03-13T10:21:44;97113.72;;;18.68;62.59
50790;BME280;37287;47.554;7.844;2023-03-13T10:24:31;97103.81;;;18.39;61.16
50790;BME280;37287;47.554;7.844;2023-03-13T10:27:07;97089.13;;;18.33;64.59
50790;BME280;37287;47.554;7.844;2023-03-13T10:29:34;97073.06;;;18.00;65.45
50790;BME280;37287;47.554;7.844;2023-03-13T10:32:06;97077.16;;;18.18;63.47
50790;BME280;37287;47.554;7.844;2023-03-13T10:34:52;97067.88;;;17.80;62.38
50790;BME280;37287;47.554;7.844;2023-03-13T10:37:22;97060.84;;;17.44;63.16
50790;BME280;37287;47.554;7.844;2023-03-13T10:39:49;97061.88;;;17.12;60.10
50790;BME280;37287;47.554;7.844;2023-03-13T10:42:27;97052.91;;;17.24;63.71
50790;BME280;37287;47.554;7.844;2023-03-13T10:45:05;97044.31;;;17.48;61.23
50790;BME280;37287;47.554;7.844;2023-03-13T10:47:33;97041.06;;;17.27;63.76
50790;BME280;37287;47.554;7.844;2023-03-13T10:50:04;97023.97;;;17.49;66.68
50790;BME280;37287;47.554;7.844;2023-03-13T10:52:32;97011.69;;;17.76;64.76
50790;BME280;37287;47.554;7.844;2023-03-13T10:55:02;97010.53;;;17.99;64.00
50790;BME280;37287;47.554;7.844;2023-03-13T10:57:30;97000.72;;;18.11;63.95
50790;BME280;37287;47.554;7.844;2023-03-13T10:59:57;97008.34;;;18.38;62.40
50790;BME280;37287;47.554;7.844;2023-03-13T11:02:31;96998.97;;;18.26;62.89
50790;BME280;37287;47.554;7.844;2023-03-13T11:05:00;96985.44;;;18.00;64.99
50790;BME280;37287;47.554;7.844;2023-03-13T11:07:31;96986.34;;;17.97;65.74
50790;BME280;37287;47.554;7.844;2023-03-13T11:10:27;96976.41;;;17.91;62.80
50790;BME280;37287;47.554;7.844;2023-03-13T11:12:59;96970.72;;;18.07;66.01
50790;BME280;37287;47.554;7.844;2023-03-13T11:15:48;96960.41;;;18.43;63.22
50790;BME280;37287;47.554;7.844;2023-03-13T11:18:33;96972.38;;;18.36;62.45
50790;BME280;37287;47.554;7.844;2023-03-13T11:21:04;96954.97;;;18.61;62.70
50790;BME280;37287;47.554;7.844;2023-03-13T11:23:48;96951.03;;;18.62;59.20
50790;BME280;37287;47.554;7.844;2023-03-13T11:29:53;96939.09;;;18.47;59.19
50790;BME280;37287;47.554;7.844;2023-03-13T11:32:36;96932.00;;;18.27;58.29
50790;BME280;37287;47.554;7.844;2023-03-13T11:38:11;96924.72;;;18.33;57.56
50790;BME280;37287;47.554;7.844;2023-03-13T11:41:12;96912.78;;;18.59;58.82
50790;BME280;37287;47.554;7.844;2023-03-13T11:44:11;96902.31;;;18.76;59.87
50790;BME280;37287;47.554;7.844;2023-03-13T12:01:04;96860.72;;;18.68;61.68
50790;BME280;37287;47.554;7.844;2023-03-13T12:03:39;96852.03;;;18.69;58.38
50790;BME280;37287;47.554;7.844;2023-03-13T12:06:24;96836.84;;;18.87;61.06
50790;BME280;37287;47.554;7.844;2023-03-13T12:08:59;96842.34;;;18.96;59.30
50790;BME280;37287;47.554;7.844;2023-03-13T12:11:39;96828.91;;;18.98;59.59
50790;BME280;37287;47.554;7.844;2023-03-13T12:14:14;96819.47;;;19.18;60.83
50790;BME280;37287;47.554;7.844;2023-03-13T12:16:48;96813.06;;;19.21;57.23
50790;BME280;37287;47.554;7.844;2023-03-13T12:19:21;96792.34;;;19.01;59.72
50790;BME280;37287;47.554;7.844;2023-03-13T12:21:53;96797.81;;;18.83;62.88
50790;BME280;37287;47.554;7.844;2023-03-13T12:24:29;96794.78;;;18.81;60.97
50790;BME280;37287;47.554;7.844;2023-03-13T12:27:17;96780.91;;;18.66;61.34
50790;BME280;37287;47.554;7.844;2023-03-13T12:32:27;96764.59;;;18.53;64.17
50790;BME280;37287;47.554;7.844;2023-03-13T12:35:07;96751.22;;;18.46;63.73
50790;BME280;37287;47.554;7.844;2023-03-13T12:38:05;96735.69;;;18.61;60.73
50790;BME280;37287;47.554;7.844;2023-03-13T12:40:40;96715.72;;;18.70;62.39
50790;BME280;37287;47.554;7.844;2023-03-13T12:43:33;96707.06;;;18.53;60.56
50790;BME280;37287;47.554;7.844;2023-03-13T12:46:04;96701.56;;;18.71;62.65
50790;BME280;37287;47.554;7.844;2023-03-13T13:00:00;96662.34;;;19.17;62.76
50790;BME280;37287;47.554;7.844;2023-03-13T13:02:31;96650.22;;;19.33;63.56
50790;BME280;37287;47.554;7.844;2023-03-13T13:05:01;96651.94;;;19.55;63.07
50790;BME280;37287;47.554;7.844;2023-03-13T13:07:32;96637.09;;;19.95;62.60
50790;BME280;37287;47.554;7.844;2023-03-13T13:12:36;96618.94;;;20.13;61.29
50790;BME280;37287;47.554;7.844;2023-03-13T13:15:15;96609.69;;;20.25;56.82
50790;BME280;37287;47.554;7.844;2023-03-13T13:17:53;96604.00;;;20.58;53.04
50790;BME280;37287;47.554;7.844;2023-03-13T13:20:41;96597.59;;;20.91;51.55
50790;BME280;37287;47.554;7.844;2023-03-13T13:23:24;96582.16;;;21.15;51.93
50790;BME280;37287;47.554;7.844;2023-03-13T13:25:54;96584.81;;;21.24;54.44
50790;BME280;37287;47.554;7.844;2023-03-13T13:28:33;96570.31;;;21.08;47.73
50790;BME280;37287;47.554;7.844;2023-03-13T13:31:00;96555.34;;;21.09;49.72
50790;BME280;37287;47.554;7.844;2023-03-13T13:38:38;96541.25;;;21.22;47.68
50790;BME280;37287;47.554;7.844;2023-03-13T13:43:45;96547.44;;;21.17;46.93
50790;BME280;37287;47.554;7.844;2023-03-13T13:46:22;96540.00;;;21.23;43.58
50790;BME280;37287;47.554;7.844;2023-03-13T13:51:40;96532.59;;;21.29;44.44
50790;BME280;37287;47.554;7.844;2023-03-13T13:57:09;96530.31;;;21.48;44.41
50790;BME280;37287;47.554;7.844;2023-03-13T13:59:50;96527.78;;;21.45;41.12
50790;BME280;37287;47.554;7.844;2023-03-13T14:02:24;96533.06;;;21.48;45.13
50790;BME280;37287;47.554;7.844;2023-03-13T14:04:59;96528.25;;;21.43;42.57
50790;BME280;37287;47.554;7.844;2023-03-13T14:10:02;96525.38;;;21.53;42.25
50790;BME280;37287;47.554;7.844;2023-03-13T14:12:36;96519.03;;;21.46;44.77
50790;BME280;37287;47.554;7.844;2023-03-13T14:15:18;96521.34;;;21.33;39.28
50790;BME280;37287;47.554;7.844;2023-03-13T14:17:52;96507.94;;;21.20;41.38
50790;BME280;37287;47.554;7.844;2023-03-13T14:20:34;96494.34;;;20.96;39.43
50790;BME280;37287;47.554;7.844;2023-03-13T14:23:09;96504.25;;;20.88;39.21
50790;BME280;37287;47.554;7.844;2023-03-13T14:25:46;96483.94;;;20.85;42.24
50790;BME280;37287;47.554;7.844;2023-03-13T14:28:16;96481.41;;;20.82;42.87
50790;BME280;37287;47.554;7.844;2023-03-13T14:30:45;96490.13;;;20.80;42.73